Latest Coastal Weather Observations for Kalumburu

IDW60701

Issued at 4:35 pm WST Friday 21 November 2014 (issued every 10 minutes, with the page automatically refreshed every 10 minutes)

About coastal observations | Map of coastal stations | Coastal observations for WA | Marine services | Other Formats
Station Details ID: 001019 Name: KALUMBURU Lat: -14.30 Lon: 126.65 Height: 23.0 m
Data from the previous 72 hours. | See also: Recent months at Kalumburu
Date/Time
WST
Temp

°C
Wind Pressure Rain
since 9am
mm
Weather Cloud Vis
km
Sea
Height
m
Swell
Dir
 
Speed
knots
Gust
knots
hPa Trend Height
m
Period
s
Dir
21/04:30pm 31.4 N 8 13 1007.8 - 0.0 - - - - - - -
21/04:00pm 31.8 N 8 12 1007.7 - 0.0 - - - - - - -
21/03:30pm 31.3 N 8 13 1007.1 - 0.0 - - - - - - -
21/03:00pm 31.4 N 10 14 1007.3 - 0.0 - - - - - - -
21/02:30pm 31.1 NW 5 7 1007.5 - 0.0 - - - - - - -
21/02:00pm 31.4 NNW 5 9 1007.7 - 0.0 - - - - - - -
21/01:30pm 32.0 S 10 16 1007.7 - 0.0 - - - - - - -
21/01:00pm 36.3 N 11 18 1007.9 - 0.0 - - - - - - -
21/12:30pm 36.2 N 10 15 1008.0 - 0.0 - - - - - - -
21/12:00pm 35.8 NW 7 10 1008.3 - 0.0 - - - - - - -
21/11:30am 36.2 WNW 5 9 1008.6 - 0.0 - - - - - - -
21/11:00am 35.6 WNW 5 8 1009.4 - 0.0 - - - - - - -
21/10:30am 34.9 W 4 7 1009.9 - 0.0 - - - - - - -
21/10:00am 34.3 NW 4 8 1010.4 - 0.0 - - - - - - -
21/09:30am 33.2 N 3 6 1010.7 - 0.0 - - - - - - -
21/09:00am 32.9 S 3 5 1011.0 - 2.2 - - - - - - -
21/08:30am 32.0 SE 4 8 1011.2 - 2.2 - - - - - - -
21/08:00am 31.2 SW 3 6 1011.1 - 2.2 - - - - - - -
21/07:30am 30.5 WNW 3 5 1010.9 - 2.2 - - - - - - -
21/07:00am 29.4 CALM 0 0 1010.8 - 2.2 - - - - - - -
21/06:30am 29.3 CALM 0 0 1010.6 - 2.2 - - - - - - -
21/06:00am 27.2 CALM 0 0 1010.3 - 2.0 - - - - - - -
21/05:30am 25.3 CALM 0 0 1010.1 - 2.0 - - - - - - -
21/05:00am 24.7 SE 0 3 1009.6 - 2.0 - - - - - - -
21/04:30am 24.7 CALM 0 0 1009.4 - 2.0 - - - - - - -
21/04:00am 24.8 CALM 0 0 1009.3 - 2.0 - - - - - - -
21/03:30am 24.8 CALM 0 0 1009.2 - 2.0 - - - - - - -
21/03:00am 24.7 CALM 0 0 1009.0 - 2.0 - - - - - - -
21/02:30am 24.8 CALM 0 0 1008.8 - 2.0 - - - - - - -
21/02:00am 24.6 CALM 0 0 1008.7 - 2.0 - - - - - - -
21/01:30am 24.8 CALM 0 0 1008.7 - 2.0 - - - - - - -
21/01:00am 25.0 CALM 0 0 1009.2 - 2.0 - - - - - - -
21/12:30am 25.0 CALM 0 0 1009.4 - 2.0 - - - - - - -
21/12:00am 25.1 SSE 0 0 1009.7 - 2.0 - - - - - - -
 
Date/Time
WST
Temp

°C
Wind Pressure Rain
since 9am
mm
Weather Cloud Vis
km
Sea
Height
m
Swell
Dir
 
Speed
knots
Gust
knots
hPa Trend Height
m
Period
s
Dir
20/11:30pm 25.2 CALM 0 0 1010.0 - 2.0 - - - - - - -
20/11:00pm 25.3 CALM 0 0 1010.4 - 2.0 - - - - - - -
20/10:30pm 25.2 CALM 0 0 1010.5 - 2.0 - - - - - - -
20/10:00pm 25.3 CALM 0 0 1010.5 - 2.0 - - - - - - -
20/09:30pm 25.3 CALM 0 0 1010.6 - 2.0 - - - - - - -
20/09:00pm 25.3 CALM 0 0 1010.4 - 2.0 - - - - - - -
20/08:30pm 25.7 CALM 0 0 1010.1 - 2.0 - - - - - - -
20/08:00pm 25.7 CALM 0 0 1009.8 - 2.0 - - - - - - -
20/07:30pm 25.8 CALM 0 0 1009.5 - 2.0 - - - - - - -
20/07:00pm 25.9 CALM 0 0 1009.2 - 2.0 - - - - - - -
20/06:30pm 26.3 NE 2 4 1008.9 - 2.0 - - - - - - -
20/06:00pm 26.3 ENE 4 5 1008.5 - 2.0 - - - - - - -
20/05:30pm 26.6 ENE 4 5 1008.4 - 2.0 - - - - - - -
20/05:00pm 26.6 SE 1 3 1008.1 - 2.0 - - - - - - -
20/04:30pm 26.8 NNE 4 6 1007.9 - 2.0 - - - - - - -
20/04:00pm 27.5 NNE 3 9 1007.5 - 2.0 - - - - - - -
20/03:30pm 26.8 SSW 3 4 1007.1 - 2.0 - - - - - - -
20/03:00pm 25.7 SE 5 9 1007.9 - 2.0 Recent precip. - - - - - -
20/02:30pm 26.0 N 6 10 1008.3 - 2.0 - - - - - - -
20/02:00pm 28.7 NNE 16 30 1007.8 - 0.0 - - - - - - -
20/01:37pm 31.9 NNE 15 25 1007.6 - 0.0 - - - - - - -
20/01:34pm 33.1 NNE 17 23 1008.0 - 0.0 - - - - - - -
20/01:30pm 38.4 SE 5 9 1007.3 - 0.0 - - - - - - -
20/01:00pm 37.5 S 7 11 1007.1 - 0.0 - - - - - - -
20/12:30pm 37.9 SSW 5 11 1007.8 - 0.0 - - - - - - -
20/12:00pm 37.4 SSW 6 11 1008.4 - 0.0 - - - - - - -
20/11:30am 36.0 S 5 8 1009.0 - 0.0 - - - - - - -
20/11:00am 34.9 S 5 7 1009.5 - 0.0 - - - - - - -
20/10:30am 34.9 S 5 9 1009.9 - 0.0 - - - - - - -
20/10:00am 34.6 SSW 5 7 1010.5 - 0.0 - - - - - - -
20/09:30am 33.8 SSW 5 8 1010.8 - 0.0 - - - - - - -
20/09:00am 32.7 S 5 7 1011.1 - 0.0 - - - - - - -
20/08:30am 32.5 WNW 3 5 1011.1 - 0.0 - - - - - - -
20/08:00am 31.8 S 4 6 1011.3 - 0.0 - - - - - - -
20/07:30am 30.2 S 4 5 1011.2 - 0.0 - - - - - - -
20/07:00am 29.7 S 4 6 1010.9 - 0.0 - - - - - - -
20/06:30am 29.7 S 2 4 1010.6 - 0.0 - - - - - - -
20/06:00am 28.0 CALM 0 0 1010.4 - 0.0 - - - - - - -
20/05:30am 26.3 CALM 0 0 1010.1 - 0.0 - - - - - - -
20/05:00am 25.7 CALM 0 0 1009.9 - 0.0 - - - - - - -
20/04:30am 25.3 CALM 0 0 1009.6 - 0.0 - - - - - - -
20/04:00am 25.7 CALM 0 0 1009.6 - 0.0 - - - - - - -
20/03:30am 25.6 CALM 0 0 1009.3 - 0.0 - - - - - - -
20/03:00am 25.4 CALM 0 0 1009.1 - 0.0 - - - - - - -
20/02:30am 25.4 CALM 0 0 1009.1 - 0.0 - - - - - - -
20/02:00am 25.6 CALM 0 0 1009.0 - 0.0 - - - - - - -
20/01:30am 25.6 CALM 0 0 1009.1 - 0.0 - - - - - - -
20/01:00am 25.7 CALM 0 0 1009.5 - 0.0 - - - - - - -
20/12:30am 25.8 CALM 0 0 1009.7 - 0.0 - - - - - - -
20/12:00am 26.1 CALM 0 0 1009.9 - 0.0 - - - - - - -
 
Date/Time
WST
Temp

°C
Wind Pressure Rain
since 9am
mm
Weather Cloud Vis
km
Sea
Height
m
Swell
Dir
 
Speed
knots
Gust
knots
hPa Trend Height
m
Period
s
Dir
19/11:30pm 26.4 WNW 1 4 1010.4 - 0.0 - - - - - - -
19/11:00pm 27.1 W 3 5 1010.9 - 0.0 - - - - - - -
19/10:30pm 26.6 CALM 0 0 1011.0 - 0.0 - - - - - - -
19/10:00pm 26.9 CALM 0 0 1011.1 - 0.0 - - - - - - -
19/09:30pm 27.2 CALM 0 0 1011.1 - 0.0 - - - - - - -
19/09:00pm 28.0 NNW 3 4 1010.9 - 0.0 - - - - - - -
19/08:30pm 28.5 N 1 4 1010.7 - 0.0 - - - - - - -
19/08:00pm 28.6 NNW 1 3 1010.3 - 0.0 - - - - - - -
19/07:30pm 30.0 NNW 4 5 1010.1 - 0.0 - - - - - - -
19/07:00pm 30.3 NNW 5 7 1009.8 - 0.0 - - - - - - -
19/06:30pm 30.6 N 5 7 1009.6 - 0.0 - - - - - - -
19/06:00pm 30.7 N 5 7 1009.6 - 0.0 - - - - - - -
19/05:30pm 31.2 N 7 10 1009.3 - 0.0 - - - - - - -
19/05:00pm 31.4 N 10 15 1009.0 - 0.0 - - - - - - -
19/04:30pm 31.8 N 12 17 1008.6 - 0.0 - - - - - - -
19/04:00pm 32.5 N 12 18 1008.2 - 0.0 - - - - - - -
19/03:30pm 33.2 N 13 19 1008.1 - 0.0 - - - - - - -
19/03:00pm 34.9 N 11 17 1007.9 - 0.0 - - - - - - -
19/02:30pm 35.7 NNW 11 15 1008.2 - 0.0 - - - - - - -
19/02:00pm 37.7 W 4 6 1008.4 - 0.0 - - - - - - -
19/01:30pm 37.1 SW 5 8 1008.8 - 0.0 - - - - - - -
19/01:00pm 36.9 WSW 4 8 1009.3 - 0.0 - - - - - - -
19/12:30pm 36.3 N 3 8 1009.9 - 0.0 - - - - - - -
19/12:00pm 35.7 S 3 7 1010.3 - 0.0 - - - - - - -
19/11:30am 35.2 NW 4 6 1010.8 - 0.0 - - - - - - -
19/11:00am 34.1 WNW 5 7 1011.2 - 0.0 - - - - - - -
19/10:30am 34.1 WSW 2 5 1011.9 - 0.0 - - - - - - -
19/10:00am 33.0 WSW 4 7 1012.3 - 0.0 - - - - - - -
19/09:30am 32.6 SW 4 6 1012.8 - 0.0 - - - - - - -
19/09:00am 31.8 S 4 7 1013.4 - 0.0 - - - - - - -
19/08:30am 31.4 S 4 7 1013.5 - 0.0 - - - - - - -
19/08:00am 30.2 SW 4 6 1013.6 - 0.0 - - - - - - -
19/07:30am 29.7 S 4 6 1013.3 - 0.0 - - - - - - -
19/07:00am 28.9 S 4 6 1012.8 - 0.0 - - - - - - -
19/06:30am 27.9 S 4 5 1012.4 - 0.0 - - - - - - -
19/06:00am 26.3 CALM 0 0 1012.1 - 0.0 - - - - - - -
19/05:30am 24.4 SSE 3 4 1011.6 - 0.0 - - - - - - -
19/05:00am 24.2 CALM 0 0 1011.1 - 0.0 - - - - - - -
19/04:30am 24.3 CALM 0 0 1010.7 - 0.0 - - - - - - -
19/04:00am 24.1 CALM 0 0 1010.5 - 0.0 - - - - - - -
19/03:30am 24.6 CALM 0 0 1010.4 - 0.0 - - - - - - -
19/03:00am 24.4 CALM 0 0 1010.1 - 0.0 - - - - - - -
19/02:30am 24.4 CALM 0 0 1010.0 - 0.0 - - - - - - -
19/02:00am 24.7 CALM 0 0 1010.2 - 0.0 - - - - - - -
19/01:30am 24.7 CALM 0 0 1010.1 - 0.0 - - - - - - -
19/01:00am 24.8 CALM 0 0 1010.4 - 0.0 - - - - - - -
19/12:30am 25.1 CALM 0 0 1010.6 - 0.0 - - - - - - -
19/12:00am 25.3 CALM 0 0 1010.7 - 0.0 - - - - - - -
 
Date/Time
WST
Temp

°C
Wind Pressure Rain
since 9am
mm
Weather Cloud Vis
km
Sea
Height
m
Swell
Dir
 
Speed
knots
Gust
knots
hPa Trend Height
m
Period
s
Dir
18/11:30pm 25.6 CALM 0 0 1010.9 - 0.0 - - - - - - -
18/11:00pm 26.0 N 1 3 1011.3 - 0.0 - - - - - - -
18/10:30pm 26.5 CALM 0 4 1011.5 - 0.0 - - - - - - -
18/10:00pm 26.9 CALM 0 0 1011.7 - 0.0 - - - - - - -
18/09:30pm 27.6 NNE 2 4 1011.6 - 0.0 - - - - - - -
18/09:00pm 28.5 N 1 4 1011.6 - 0.0 - - - - - - -
18/08:30pm 29.1 N 4 6 1011.6 - 0.0 - - - - - - -
18/08:00pm 29.3 NE 4 7 1011.7 - 0.0 - - - - - - -
18/07:30pm 29.7 NNE 4 6 1011.7 - 0.0 - - - - - - -
18/07:00pm 30.3 NNE 6 9 1011.4 - 0.0 - - - - - - -
18/06:30pm 29.0 ENE 2 5 1011.0 - 0.0 - - - - - - -
18/06:00pm 29.8 CALM 0 0 1010.4 - 0.0 - - - - - - -
18/05:30pm 30.5 CALM 0 0 1010.2 - 0.0 - - - - - - -
18/05:00pm 31.2 S 2 4 1009.7 - 0.0 - - - - - - -

Other Formats:

Comma delimited format used in spreadsheet applications
http://www.bom.gov.au/fwo/IDW60701/IDW60701.94100.axf

JavaScript Object Notation format (JSON) in row-major order
http://www.bom.gov.au/fwo/IDW60701/IDW60701.94100.json